createdAt,value
2023-05-24T00:02:38.357Z,57.40
2023-05-24T00:05:57.838Z,57.40
2023-05-24T00:07:03.688Z,57.10
2023-05-24T00:10:17.838Z,57.20
2023-05-24T00:14:35.765Z,57.80
2023-05-24T00:17:47.780Z,57.50
2023-05-24T00:18:52.634Z,57.50
2023-05-24T00:19:56.865Z,57.60
2023-05-24T00:22:04.040Z,57.50
2023-05-24T00:23:08.491Z,57.70
2023-05-24T00:24:12.932Z,59.80
2023-05-24T00:25:15.822Z,57.90
2023-05-24T00:29:42.253Z,57.90
2023-05-24T00:30:46.661Z,58.00
2023-05-24T00:32:54.047Z,58.30
2023-05-24T00:35:03.515Z,57.90
2023-05-24T00:36:08.242Z,58.10
2023-05-24T00:37:12.605Z,58.40
2023-05-24T00:40:23.280Z,58.40
2023-05-24T00:43:38.058Z,57.60
2023-05-24T00:44:41.022Z,57.80
2023-05-24T00:46:49.142Z,57.40
2023-05-24T00:47:53.216Z,57.90
2023-05-24T00:48:58.564Z,57.90
2023-05-24T00:54:22.639Z,59.20
2023-05-24T00:55:27.727Z,58.40
2023-05-24T00:57:38.837Z,58.50
2023-05-24T00:59:47.271Z,58.30
2023-05-24T01:00:57.103Z,58.40
2023-05-24T01:02:01.315Z,58.40
2023-05-24T01:03:06.898Z,58.20
2023-05-24T01:06:23.613Z,57.90
2023-05-24T01:07:40.993Z,57.90
2023-05-24T01:09:08.769Z,58.00
2023-05-24T01:10:23.253Z,58.10
2023-05-24T01:11:36.995Z,58.40
2023-05-24T01:12:54.136Z,58.50
2023-05-24T01:14:14.716Z,58.20
2023-05-24T01:15:26.238Z,57.90
2023-05-24T01:16:51.919Z,58.00
2023-05-24T01:18:06.378Z,58.20
2023-05-24T01:19:49.264Z,58.50
2023-05-24T01:21:06.817Z,58.30
2023-05-24T01:22:23.754Z,58.30
2023-05-24T01:23:43.537Z,58.60
2023-05-24T01:25:03.953Z,58.50
2023-05-24T01:26:22.697Z,58.20
2023-05-24T01:27:32.030Z,58.10
2023-05-24T01:28:37.020Z,58.10
2023-05-24T01:29:40.845Z,58.00
2023-05-24T01:31:48.777Z,58.30
2023-05-24T01:32:58.304Z,58.20
2023-05-24T01:34:03.987Z,58.40
2023-05-24T01:37:19.578Z,58.10
2023-05-24T01:38:23.084Z,57.90
2023-05-24T01:39:31.367Z,58.30
2023-05-24T01:40:39.371Z,58.30
2023-05-24T01:41:51.918Z,58.30
2023-05-24T01:43:04.511Z,58.40
2023-05-24T01:44:19.350Z,58.10
2023-05-24T01:45:30.887Z,61.00
2023-05-24T01:46:39.124Z,58.50
2023-05-24T01:47:57.767Z,58.30
2023-05-24T01:49:11.829Z,58.00
2023-05-24T01:50:25.748Z,59.20
2023-05-24T01:51:39.871Z,58.20
2023-05-24T01:52:48.554Z,58.30
2023-05-24T01:53:54.248Z,58.50
2023-05-24T01:54:59.511Z,58.40
2023-05-24T01:56:06.040Z,58.30
2023-05-24T01:57:12.875Z,58.20
2023-05-24T02:00:34.294Z,58.70
2023-05-24T02:17:46.432Z,58.40
2023-05-24T02:20:58.436Z,58.50
2023-05-24T02:23:08.090Z,58.50
2023-05-24T02:25:18.297Z,58.10
2023-05-24T02:36:39.265Z,56.20
2023-05-24T02:38:47.291Z,57.70
2023-05-24T02:39:50.700Z,58.00
2023-05-24T02:44:12.167Z,57.50
2023-05-24T02:49:40.458Z,58.80
2023-05-24T02:52:57.856Z,58.10
2023-05-24T02:54:03.295Z,58.00
2023-05-24T02:57:26.107Z,58.00
2023-05-24T02:58:31.055Z,58.00
2023-05-24T02:59:36.487Z,58.20
2023-05-24T03:00:40.574Z,58.00
2023-05-24T03:01:43.630Z,58.00
2023-05-24T03:02:51.294Z,58.40
2023-05-24T03:05:00.220Z,58.20
2023-05-24T03:06:03.577Z,58.30
2023-05-24T03:08:12.223Z,59.50
2023-05-24T03:09:17.389Z,58.30
2023-05-24T03:11:55.025Z,58.20
2023-05-24T03:14:03.643Z,58.10
2023-05-24T03:15:09.749Z,58.00
2023-05-24T03:18:24.862Z,58.80
2023-05-24T03:19:28.647Z,58.40
2023-05-24T03:20:35.141Z,58.20
2023-05-24T03:22:43.400Z,58.40
2023-05-24T03:23:46.929Z,58.20
2023-05-24T03:24:52.013Z,58.00
2023-05-24T03:25:55.289Z,58.00
2023-05-24T03:30:17.987Z,58.70
2023-05-24T03:31:30.089Z,58.40
2023-05-24T03:32:35.072Z,58.20
2023-05-24T03:33:38.610Z,58.30
2023-05-24T03:34:46.288Z,58.30
2023-05-24T03:35:50.233Z,58.00
2023-05-24T03:36:54.130Z,58.00
2023-05-24T03:40:23.622Z,58.50
2023-05-24T03:41:32.283Z,58.20
2023-05-24T03:42:38.774Z,57.80
2023-05-24T03:43:43.395Z,57.80
2023-05-24T03:46:01.028Z,57.90
2023-05-24T03:49:13.495Z,58.20
2023-05-24T03:50:16.928Z,58.20
2023-05-24T03:53:28.717Z,58.40
2023-05-24T03:55:35.749Z,58.40
2023-05-24T03:56:39.857Z,58.20
2023-05-24T03:57:43.490Z,58.20
2023-05-24T03:58:47.518Z,58.40
2023-05-24T04:02:03.528Z,58.70
2023-05-24T04:03:09.071Z,58.60
2023-05-24T04:05:19.829Z,58.10
2023-05-24T04:06:29.427Z,58.30
2023-05-24T04:07:37.154Z,58.00
2023-05-24T04:09:46.327Z,58.30
2023-05-24T04:10:49.031Z,58.50
2023-05-24T04:11:53.714Z,58.30
2023-05-24T04:14:03.284Z,58.20
2023-05-24T04:17:19.787Z,57.80
2023-05-24T04:18:24.402Z,57.70
2023-05-24T04:20:32.315Z,57.80
2023-05-24T04:22:43.654Z,58.10
2023-05-24T04:23:51.669Z,58.20
2023-05-24T04:24:55.772Z,58.10
2023-05-24T04:27:03.940Z,57.60
2023-05-24T04:28:07.225Z,57.90
2023-05-24T04:29:11.722Z,58.00
2023-05-24T04:30:18.315Z,57.20
2023-05-24T04:32:30.607Z,58.00
2023-05-24T04:33:35.700Z,57.50
2023-05-24T04:34:42.737Z,57.60
2023-05-24T04:35:47.973Z,57.70
2023-05-24T04:36:52.632Z,57.80
2023-05-24T04:37:58.399Z,58.10
2023-05-24T04:39:05.437Z,58.10
2023-05-24T04:40:12.018Z,58.10
2023-05-24T04:41:15.458Z,57.80
2023-05-24T04:42:19.660Z,57.70
2023-05-24T04:43:22.673Z,58.10
2023-05-24T04:44:26.530Z,58.10
2023-05-24T04:46:37.556Z,58.10
2023-05-24T04:48:46.492Z,58.80
2023-05-24T04:49:53.469Z,58.30
2023-05-24T04:51:00.614Z,58.30
2023-05-24T04:53:07.677Z,58.70
2023-05-24T04:54:10.523Z,58.40
2023-05-24T04:55:14.371Z,58.20
2023-05-24T04:56:17.861Z,58.40
2023-05-24T04:57:21.586Z,58.90
2023-05-24T04:58:27.594Z,59.30
2023-05-24T04:59:30.632Z,58.90
2023-05-24T05:00:34.485Z,58.80
2023-05-24T05:01:40.312Z,58.40
2023-05-24T05:03:52.005Z,58.40
2023-05-24T05:06:00.169Z,58.70
2023-05-24T05:07:04.998Z,59.00
2023-05-24T05:09:14.159Z,58.80
2023-05-24T05:10:18.396Z,58.90
2023-05-24T05:11:21.066Z,58.80
2023-05-24T05:12:25.077Z,59.00
2023-05-24T05:14:33.293Z,58.90
2023-05-24T05:15:37.281Z,59.20
2023-05-24T05:16:41.887Z,59.10
2023-05-24T05:17:46.576Z,59.20
2023-05-24T05:18:50.390Z,58.80
2023-05-24T05:19:53.296Z,59.40
2023-05-24T05:20:58.438Z,59.80
2023-05-24T05:22:01.327Z,58.60
2023-05-24T05:23:06.148Z,58.20
2023-05-24T05:24:10.566Z,57.70
2023-05-24T05:25:15.349Z,57.90
2023-05-24T05:26:19.650Z,57.90
2023-05-24T05:28:28.312Z,57.60
2023-05-24T05:29:32.684Z,57.50
2023-05-24T05:30:36.874Z,57.40
2023-05-24T05:31:41.417Z,57.30
2023-05-24T05:32:46.230Z,57.50
2023-05-24T05:33:50.644Z,57.30
2023-05-24T05:34:54.256Z,57.50
2023-05-24T05:35:58.596Z,57.40
2023-05-24T05:37:01.986Z,57.00
2023-05-24T05:39:10.645Z,57.00
2023-05-24T05:40:14.695Z,57.20
2023-05-24T05:41:17.742Z,56.90
2023-05-24T05:43:26.046Z,56.80
2023-05-24T05:44:30.266Z,56.80
2023-05-24T05:45:33.139Z,56.90
2023-05-24T05:47:41.359Z,57.10
2023-05-24T05:48:48.008Z,57.10
2023-05-24T05:49:51.515Z,57.20
2023-05-24T05:50:55.775Z,57.30
2023-05-24T05:51:59.619Z,57.40
2023-05-24T05:53:02.340Z,57.40
2023-05-24T05:54:06.945Z,57.60
2023-05-24T05:55:11.705Z,57.90
2023-05-24T05:56:15.777Z,58.10
2023-05-24T05:57:24.285Z,57.30
2023-05-24T05:58:28.235Z,57.10
2023-05-24T05:59:31.118Z,57.20
2023-05-24T06:00:36.012Z,58.20
2023-05-24T06:01:40.005Z,57.20
2023-05-24T06:02:43.910Z,57.20
2023-05-24T06:03:48.884Z,57.30
2023-05-24T06:04:53.309Z,57.40
2023-05-24T06:05:58.274Z,57.40
2023-05-24T06:07:02.356Z,57.10
2023-05-24T06:08:05.129Z,57.10
2023-05-24T06:09:09.543Z,57.20
2023-05-24T06:10:15.494Z,56.40
2023-05-24T06:11:19.464Z,56.40
2023-05-24T06:12:24.938Z,56.00
2023-05-24T06:13:31.315Z,56.40
2023-05-24T06:14:38.769Z,55.80
2023-05-24T06:15:41.493Z,56.70
2023-05-24T06:16:46.480Z,56.40
2023-05-24T06:17:51.936Z,56.50
2023-05-24T06:19:05.462Z,55.50
2023-05-24T06:20:15.751Z,57.20
2023-05-24T06:21:23.117Z,56.40
2023-05-24T06:22:26.500Z,57.00
2023-05-24T06:23:30.297Z,56.20
2023-05-24T06:24:35.307Z,56.40
2023-05-24T06:25:40.598Z,55.40
2023-05-24T06:26:44.300Z,56.00
2023-05-24T06:27:47.862Z,54.60
2023-05-24T06:28:51.640Z,54.60
2023-05-24T06:29:55.726Z,54.70
2023-05-24T06:30:59.735Z,53.90
2023-05-24T06:32:02.538Z,54.30
2023-05-24T06:33:06.654Z,54.10
2023-05-24T06:34:10.735Z,54.00
2023-05-24T06:35:15.378Z,54.40
2023-05-24T06:36:18.444Z,53.90
2023-05-24T06:37:26.054Z,53.70
2023-05-24T06:38:29.521Z,53.50
2023-05-24T06:39:33.401Z,52.40
2023-05-24T06:40:40.016Z,52.70
2023-05-24T06:41:44.792Z,51.60
2023-05-24T06:42:51.679Z,53.20
2023-05-24T06:44:59.727Z,51.10
2023-05-24T06:46:04.067Z,51.20
2023-05-24T06:47:07.568Z,50.90
2023-05-24T06:48:11.850Z,51.70
2023-05-24T06:49:17.609Z,52.20
2023-05-24T06:50:21.028Z,52.00
2023-05-24T06:51:25.061Z,52.40
2023-05-24T06:52:29.176Z,50.80
2023-05-24T06:53:33.355Z,50.70
2023-05-24T06:54:37.703Z,51.20
2023-05-24T06:55:41.586Z,51.20
2023-05-24T06:56:46.745Z,51.90
2023-05-24T06:57:51.094Z,51.20
2023-05-24T06:58:54.488Z,51.00
2023-05-24T06:59:58.874Z,50.90
2023-05-24T07:01:03.270Z,50.00
2023-05-24T07:02:09.099Z,50.40
2023-05-24T07:04:18.037Z,50.00
2023-05-24T07:05:22.413Z,50.50
2023-05-24T07:06:25.261Z,50.60
2023-05-24T07:07:29.574Z,50.80
2023-05-24T07:08:33.502Z,50.20
2023-05-24T07:09:38.371Z,49.50
2023-05-24T07:10:45.404Z,50.20
2023-05-24T07:11:49.727Z,50.50
2023-05-24T07:12:54.410Z,49.90
2023-05-24T07:14:00.747Z,49.90
2023-05-24T07:15:06.462Z,50.30
2023-05-24T07:16:09.415Z,49.70
2023-05-24T07:17:13.936Z,49.60
2023-05-24T07:18:16.924Z,49.20
2023-05-24T07:19:22.547Z,48.90
2023-05-24T07:20:25.632Z,49.60
2023-05-24T07:21:29.724Z,49.50
2023-05-24T07:22:32.772Z,50.00
2023-05-24T07:23:37.164Z,50.60
2023-05-24T07:25:47.335Z,49.40
2023-05-24T07:26:50.478Z,49.20
2023-05-24T07:27:55.412Z,49.00
2023-05-24T07:28:58.984Z,49.30
2023-05-24T07:30:03.312Z,49.00
2023-05-24T07:31:06.322Z,49.40
2023-05-24T07:32:10.278Z,48.50
2023-05-24T07:33:13.276Z,49.10
2023-05-24T07:34:17.832Z,49.00
2023-05-24T07:36:34.792Z,49.70
2023-05-24T07:38:44.281Z,49.10
2023-05-24T07:39:48.998Z,49.60
2023-05-24T07:40:53.870Z,49.30
2023-05-24T07:41:56.861Z,49.10
2023-05-24T07:43:03.784Z,49.80
2023-05-24T07:44:07.433Z,49.20
2023-05-24T07:46:14.767Z,48.40
2023-05-24T07:47:18.922Z,48.50
2023-05-24T07:48:22.076Z,48.40
2023-05-24T07:49:25.731Z,48.90
2023-05-24T07:50:30.485Z,49.10
2023-05-24T07:51:34.563Z,48.30
2023-05-24T07:52:39.398Z,49.00
2023-05-24T07:53:43.661Z,49.10
2023-05-24T07:54:48.401Z,48.90
2023-05-24T07:55:52.177Z,49.10
2023-05-24T07:56:57.765Z,49.30
2023-05-24T07:58:02.387Z,48.90
2023-05-24T07:59:07.220Z,49.30
2023-05-24T08:00:14.770Z,49.30
2023-05-24T08:01:19.389Z,49.90
2023-05-24T08:02:23.280Z,50.20
2023-05-24T08:03:27.726Z,50.90
2023-05-24T08:04:31.518Z,50.40
2023-05-24T08:05:36.763Z,50.80
2023-05-24T08:06:40.617Z,50.70
2023-05-24T08:07:43.929Z,50.40
2023-05-24T08:08:47.896Z,50.40
2023-05-24T08:09:50.806Z,50.90
2023-05-24T08:10:54.366Z,51.80
2023-05-24T08:11:57.151Z,52.80
2023-05-24T08:14:04.852Z,51.50
2023-05-24T08:15:09.976Z,50.90
2023-05-24T08:17:20.369Z,50.20
2023-05-24T08:18:28.140Z,50.30
2023-05-24T08:19:35.936Z,50.50
2023-05-24T08:20:41.940Z,49.50
2023-05-24T08:21:45.093Z,46.80
2023-05-24T08:22:49.781Z,49.10
2023-05-24T08:23:52.845Z,48.90
2023-05-24T08:24:59.363Z,49.90
2023-05-24T08:26:02.239Z,49.40
2023-05-24T08:28:14.288Z,49.10
2023-05-24T08:29:19.141Z,48.70
2023-05-24T08:30:23.457Z,48.70
2023-05-24T08:32:33.947Z,48.50
2023-05-24T08:33:37.551Z,49.10
2023-05-24T08:34:42.055Z,49.10
2023-05-24T08:35:47.762Z,49.80
2023-05-24T08:36:50.569Z,48.90
2023-05-24T08:37:54.281Z,48.80
2023-05-24T08:38:57.005Z,48.70
2023-05-24T08:40:01.445Z,48.40
2023-05-24T08:41:07.660Z,50.30
2023-05-24T08:42:11.705Z,50.60
2023-05-24T08:43:16.026Z,50.50
2023-05-24T08:44:19.752Z,50.90
2023-05-24T08:45:23.241Z,50.60
2023-05-24T08:46:28.269Z,50.20
2023-05-24T08:47:33.184Z,50.30
2023-05-24T08:48:47.868Z,48.90
2023-05-24T08:49:53.231Z,48.90
2023-05-24T08:51:00.190Z,49.70
2023-05-24T08:52:05.430Z,49.60
2023-05-24T08:53:11.658Z,50.20
2023-05-24T08:55:21.220Z,49.80
2023-05-24T08:56:27.473Z,49.50
2023-05-24T08:57:35.444Z,50.10
2023-05-24T08:59:47.364Z,49.90
2023-05-24T09:00:51.432Z,50.20
2023-05-24T09:01:56.741Z,50.30
2023-05-24T09:04:07.095Z,50.50
2023-05-24T09:06:20.916Z,50.70
2023-05-24T09:07:24.954Z,50.70
2023-05-24T09:08:30.193Z,51.00
2023-05-24T09:09:36.662Z,51.90
2023-05-24T09:10:53.273Z,51.80
2023-05-24T09:12:06.245Z,51.80
2023-05-24T09:13:12.354Z,52.00
2023-05-24T09:14:15.603Z,52.60
2023-05-24T09:17:29.699Z,52.90
2023-05-24T09:18:35.409Z,53.40
2023-05-24T09:19:39.424Z,51.90
2023-05-24T09:20:43.825Z,52.60
2023-05-24T09:21:51.832Z,52.60
2023-05-24T09:22:56.289Z,52.90
2023-05-24T09:24:01.638Z,53.40
2023-05-24T09:25:06.500Z,53.00
2023-05-24T09:26:11.442Z,53.20
2023-05-24T09:27:16.641Z,53.70
2023-05-24T09:28:22.090Z,54.20
2023-05-24T09:29:24.959Z,54.20
2023-05-24T09:30:29.215Z,56.10
2023-05-24T09:31:36.474Z,54.00
2023-05-24T09:32:41.580Z,54.30
2023-05-24T09:33:48.703Z,54.10
2023-05-24T09:34:55.462Z,54.60
2023-05-24T09:36:03.407Z,54.80
2023-05-24T09:37:16.688Z,53.60
2023-05-24T09:38:26.404Z,53.60
2023-05-24T09:41:44.715Z,53.70
2023-05-24T09:42:51.986Z,54.20
2023-05-24T09:43:56.032Z,54.30
2023-05-24T09:45:02.816Z,54.40
2023-05-24T09:46:06.766Z,54.20
2023-05-24T09:48:17.884Z,53.70
2023-05-24T09:49:23.425Z,53.70
2023-05-24T09:50:27.543Z,53.50
2023-05-24T09:51:32.987Z,53.80
2023-05-24T09:52:40.956Z,53.70
2023-05-24T09:53:48.279Z,53.70
2023-05-24T09:54:53.088Z,53.10
2023-05-24T09:55:57.566Z,53.60
2023-05-24T09:57:05.656Z,54.10
2023-05-24T09:58:10.179Z,53.70
2023-05-24T09:59:15.220Z,53.20
2023-05-24T10:00:23.516Z,53.20
2023-05-24T10:01:28.404Z,53.20
2023-05-24T10:02:41.551Z,53.10
2023-05-24T10:03:59.174Z,53.10
2023-05-24T10:05:03.169Z,53.10
2023-05-24T10:06:08.628Z,53.90
2023-05-24T10:07:14.227Z,54.50
2023-05-24T10:08:21.109Z,53.10
2023-05-24T10:09:26.554Z,53.30
2023-05-24T10:10:33.590Z,52.80
2023-05-24T10:12:46.831Z,52.70
2023-05-24T10:13:51.745Z,53.10
2023-05-24T10:14:58.042Z,53.00
2023-05-24T10:16:04.543Z,53.20
2023-05-24T10:18:14.776Z,52.60
2023-05-24T10:19:19.053Z,52.90
2023-05-24T10:20:23.769Z,52.30
2023-05-24T10:21:33.312Z,52.30
2023-05-24T10:22:45.953Z,52.80
2023-05-24T10:23:56.666Z,53.40
2023-05-24T10:25:01.487Z,52.90
2023-05-24T10:26:08.262Z,52.30
2023-05-24T10:27:18.278Z,51.80
2023-05-24T10:28:23.981Z,52.30
2023-05-24T10:29:45.280Z,52.10
2023-05-24T10:31:01.675Z,51.60
2023-05-24T10:32:05.828Z,52.00
2023-05-24T10:33:14.221Z,51.80
2023-05-24T10:34:19.452Z,52.30
2023-05-24T10:35:24.435Z,52.10
2023-05-24T10:36:29.179Z,52.50
2023-05-24T10:37:33.104Z,52.10
2023-05-24T10:38:41.021Z,52.60
2023-05-24T10:39:45.357Z,52.30
2023-05-24T10:40:49.816Z,52.40
2023-05-24T10:41:56.892Z,51.80
2023-05-24T10:43:04.970Z,51.90
2023-05-24T10:44:12.691Z,51.90
2023-05-24T10:45:37.624Z,51.80
2023-05-24T10:47:11.845Z,51.90
2023-05-24T10:48:38.680Z,52.50
2023-05-24T10:49:51.990Z,52.60
2023-05-24T10:50:55.871Z,51.40
2023-05-24T10:52:04.031Z,52.20
2023-05-24T10:53:17.863Z,52.20
2023-05-24T10:54:27.508Z,52.00
2023-05-24T10:55:35.492Z,52.30
2023-05-24T10:56:43.690Z,52.60
2023-05-24T10:57:47.842Z,52.60
2023-05-24T10:59:02.615Z,52.20
2023-05-24T11:01:37.456Z,52.20
2023-05-24T11:02:45.037Z,51.90
2023-05-24T11:03:51.422Z,52.10
2023-05-24T11:04:56.787Z,52.00
2023-05-24T11:06:01.588Z,52.50
2023-05-24T11:07:09.875Z,52.00
2023-05-24T11:08:13.540Z,52.70
2023-05-24T11:09:20.250Z,52.90
2023-05-24T11:10:35.092Z,52.50
2023-05-24T11:11:40.868Z,52.50
2023-05-24T11:12:46.537Z,52.10
2023-05-24T11:13:51.057Z,52.10
2023-05-24T11:14:55.906Z,52.00
2023-05-24T11:17:06.174Z,52.10
2023-05-24T11:18:23.607Z,52.10
2023-05-24T11:19:36.271Z,51.60
2023-05-24T11:20:40.633Z,51.80
2023-05-24T11:21:47.458Z,51.40
2023-05-24T11:24:02.721Z,51.20
2023-05-24T11:25:14.188Z,51.60
2023-05-24T11:26:20.120Z,51.30
2023-05-24T11:27:27.152Z,52.10
2023-05-24T11:28:31.540Z,52.20
2023-05-24T11:29:46.613Z,53.40
2023-05-24T11:30:53.609Z,53.00
2023-05-24T11:32:05.939Z,52.70
2023-05-24T11:33:28.636Z,51.20
2023-05-24T11:34:36.610Z,51.50
2023-05-24T11:35:43.112Z,51.60
2023-05-24T11:36:53.972Z,51.60
2023-05-24T11:37:58.552Z,50.70
2023-05-24T11:39:03.899Z,51.10
2023-05-24T11:41:13.754Z,50.70
2023-05-24T11:42:19.856Z,49.70
2023-05-24T11:43:22.977Z,51.50
2023-05-24T11:44:27.459Z,51.70
2023-05-24T11:45:30.870Z,51.70
2023-05-24T11:46:35.364Z,51.60
2023-05-24T11:47:40.632Z,50.80
2023-05-24T11:48:45.140Z,50.70
2023-05-24T11:49:52.784Z,51.50
2023-05-24T11:50:57.231Z,51.30
2023-05-24T11:52:04.450Z,51.70
2023-05-24T11:53:10.367Z,51.70
2023-05-24T11:54:14.393Z,50.60
2023-05-24T11:55:25.980Z,48.30
2023-05-24T11:56:33.209Z,51.20
2023-05-24T11:57:43.859Z,51.60
2023-05-24T11:58:52.470Z,50.10
2023-05-24T11:59:56.881Z,51.00
2023-05-24T12:01:04.279Z,51.00
2023-05-24T12:02:11.400Z,51.00
2023-05-24T12:03:15.435Z,49.70
2023-05-24T12:04:19.599Z,49.30
2023-05-24T12:05:23.986Z,49.50
2023-05-24T12:06:36.904Z,49.50
2023-05-24T12:07:41.029Z,49.90
2023-05-24T12:08:49.938Z,50.10
2023-05-24T12:09:54.048Z,50.40
2023-05-24T12:10:57.166Z,49.90
2023-05-24T12:12:02.764Z,50.90
2023-05-24T12:13:20.339Z,50.50
2023-05-24T12:14:27.678Z,50.50
2023-05-24T12:15:31.981Z,50.90
2023-05-24T12:16:38.281Z,50.80
2023-05-24T12:17:43.004Z,49.60
2023-05-24T12:18:59.293Z,50.20
2023-05-24T12:20:12.482Z,50.20
2023-05-24T12:21:17.605Z,49.60
2023-05-24T12:22:21.282Z,49.60
2023-05-24T12:23:27.940Z,50.20
2023-05-24T12:24:33.436Z,49.60
2023-05-24T12:25:42.079Z,48.50
2023-05-24T12:26:48.797Z,49.50
2023-05-24T12:27:56.134Z,49.40
2023-05-24T12:29:01.931Z,49.50
2023-05-24T12:30:10.276Z,49.80
2023-05-24T12:31:14.187Z,48.70
2023-05-24T12:32:19.505Z,49.10
2023-05-24T12:33:23.398Z,49.40
2023-05-24T12:34:27.797Z,50.10
2023-05-24T12:35:31.848Z,49.70
2023-05-24T12:36:36.867Z,50.80
2023-05-24T12:37:40.835Z,49.80
2023-05-24T12:38:45.067Z,49.90
2023-05-24T12:39:49.042Z,48.60
2023-05-24T12:41:11.581Z,48.90
2023-05-24T12:42:17.520Z,49.00
2023-05-24T12:43:24.832Z,48.70
2023-05-24T12:44:31.607Z,49.20
2023-05-24T12:45:35.057Z,49.10
2023-05-24T12:46:39.375Z,49.50
2023-05-24T12:47:43.012Z,49.10
2023-05-24T12:48:47.138Z,49.20
2023-05-24T12:49:50.557Z,49.50
2023-05-24T12:52:00.183Z,49.30
2023-05-24T12:53:04.527Z,49.20
2023-05-24T12:54:07.908Z,48.60
2023-05-24T12:55:11.668Z,48.40
2023-05-24T12:56:18.646Z,48.30
2023-05-24T12:57:23.571Z,48.50
2023-05-24T12:58:27.380Z,48.80
2023-05-24T12:59:31.794Z,49.40
2023-05-24T13:00:35.720Z,49.10
2023-05-24T13:01:38.597Z,47.50
2023-05-24T13:02:43.030Z,49.40
2023-05-24T13:03:47.159Z,49.00
2023-05-24T13:04:51.875Z,49.20
2023-05-24T13:05:56.336Z,48.80
2023-05-24T13:07:02.234Z,48.90
2023-05-24T13:08:05.983Z,49.40
2023-05-24T13:09:10.128Z,49.50
2023-05-24T13:10:14.093Z,49.70
2023-05-24T13:11:18.472Z,50.20
2023-05-24T13:12:22.434Z,49.50
2023-05-24T13:13:30.073Z,49.90
2023-05-24T13:14:35.736Z,50.00
2023-05-24T13:15:39.502Z,50.30
2023-05-24T13:16:44.398Z,50.20
2023-05-24T13:17:47.786Z,50.20
2023-05-24T13:18:53.934Z,50.90
2023-05-24T13:21:02.261Z,49.90
2023-05-24T13:22:05.871Z,50.30
2023-05-24T13:23:11.514Z,50.20
2023-05-24T13:25:19.823Z,50.60
2023-05-24T13:26:24.541Z,50.80
2023-05-24T13:27:28.626Z,50.60
2023-05-24T13:28:32.104Z,50.50
2023-05-24T13:29:48.796Z,51.10
2023-05-24T13:30:58.318Z,50.60
2023-05-24T13:32:07.771Z,49.80
2023-05-24T13:33:17.544Z,49.90
2023-05-24T13:35:26.152Z,49.90
2023-05-24T13:36:28.662Z,50.70
2023-05-24T13:37:33.111Z,51.20
2023-05-24T13:38:40.369Z,50.90
2023-05-24T13:39:45.918Z,50.10
2023-05-24T13:40:50.227Z,50.10
2023-05-24T13:41:53.040Z,51.20
2023-05-24T13:42:59.175Z,51.00
2023-05-24T13:44:01.919Z,51.10
2023-05-24T13:45:08.757Z,51.70
2023-05-24T13:46:13.856Z,51.10
2023-05-24T13:47:31.210Z,51.90
2023-05-24T13:48:39.857Z,51.60
2023-05-24T13:49:42.449Z,51.60
2023-05-24T13:50:47.834Z,51.30
2023-05-24T13:51:52.210Z,51.80
2023-05-24T13:54:02.179Z,52.10
2023-05-24T13:55:07.361Z,52.00
2023-05-24T13:56:10.294Z,51.90
2023-05-24T13:57:14.089Z,51.40
2023-05-24T13:58:17.316Z,51.30
2023-05-24T13:59:21.493Z,47.20
2023-05-24T14:00:28.918Z,45.90
2023-05-24T14:01:32.173Z,48.90
2023-05-24T14:02:37.703Z,50.90
2023-05-24T14:03:41.508Z,52.20
2023-05-24T14:04:46.172Z,53.50
2023-05-24T14:05:48.785Z,53.70
2023-05-24T14:06:52.859Z,53.50
2023-05-24T14:07:56.757Z,53.40
2023-05-24T14:09:01.743Z,53.20
2023-05-24T14:10:07.447Z,52.30
2023-05-24T14:11:11.226Z,49.50
2023-05-24T14:12:16.537Z,49.00
2023-05-24T14:13:58.888Z,49.00
2023-05-24T14:15:54.453Z,49.70
2023-05-24T14:17:01.109Z,51.00
2023-05-24T14:18:08.251Z,51.00
2023-05-24T14:19:12.979Z,49.70
2023-05-24T14:20:16.625Z,50.70
2023-05-24T14:21:22.042Z,50.90
2023-05-24T14:22:26.367Z,49.30
2023-05-24T14:23:32.222Z,50.80
2023-05-24T14:24:37.214Z,50.10
2023-05-24T14:25:41.466Z,50.10
2023-05-24T14:26:47.698Z,50.70
2023-05-24T14:27:51.705Z,50.30
2023-05-24T14:28:59.034Z,49.70
2023-05-24T14:30:02.023Z,50.80
2023-05-24T14:31:09.097Z,47.50
2023-05-24T14:32:12.245Z,48.30
2023-05-24T14:33:16.131Z,48.90
2023-05-24T14:34:21.277Z,48.10
2023-05-24T14:35:24.308Z,50.50
2023-05-24T14:36:27.973Z,48.10
2023-05-24T14:37:30.542Z,49.50
2023-05-24T14:38:36.766Z,49.90
2023-05-24T14:39:40.209Z,49.30
2023-05-24T14:40:47.843Z,48.30
2023-05-24T14:41:50.573Z,49.20
2023-05-24T14:42:55.551Z,50.60
2023-05-24T14:43:58.465Z,49.10
2023-05-24T14:45:03.192Z,49.90
2023-05-24T14:46:07.704Z,49.60
2023-05-24T14:47:11.445Z,49.80
2023-05-24T14:48:16.799Z,50.00
2023-05-24T14:49:20.938Z,48.80
2023-05-24T14:50:24.551Z,49.80
2023-05-24T14:52:32.837Z,47.40
2023-05-24T14:53:36.628Z,49.40
2023-05-24T14:54:39.667Z,50.10
2023-05-24T14:55:45.176Z,48.90
2023-05-24T14:56:48.460Z,49.50
2023-05-24T14:57:51.867Z,49.40
2023-05-24T14:58:55.992Z,49.70
2023-05-24T14:59:58.687Z,49.30
2023-05-24T15:01:03.569Z,49.30
2023-05-24T15:03:13.018Z,48.70
2023-05-24T15:04:17.238Z,46.30
2023-05-24T15:05:20.377Z,49.30
2023-05-24T15:06:25.174Z,50.10
2023-05-24T15:07:27.954Z,50.20
2023-05-24T15:08:33.245Z,50.10
2023-05-24T15:09:37.450Z,49.80
2023-05-24T15:10:41.132Z,49.00
2023-05-24T15:11:45.531Z,50.20
2023-05-24T15:12:48.874Z,50.20
2023-05-24T15:13:55.549Z,50.10
2023-05-24T15:15:01.936Z,50.20
2023-05-24T15:16:06.401Z,50.40
2023-05-24T15:17:10.536Z,50.50
2023-05-24T15:18:18.469Z,50.40
2023-05-24T15:19:21.272Z,50.10
2023-05-24T15:20:25.921Z,50.30
2023-05-24T15:21:30.319Z,51.20
2023-05-24T15:22:34.501Z,51.80
2023-05-24T15:23:40.237Z,53.10
2023-05-24T15:24:42.789Z,54.70
2023-05-24T15:25:46.604Z,56.00
2023-05-24T15:26:49.334Z,58.70
2023-05-24T15:27:53.339Z,61.10
2023-05-24T15:28:58.347Z,61.30
2023-05-24T15:30:03.743Z,61.10
2023-05-24T15:31:14.089Z,63.70
2023-05-24T15:32:22.733Z,63.30
2023-05-24T15:33:27.976Z,63.60
2023-05-24T15:34:30.648Z,63.10
2023-05-24T15:35:34.463Z,64.40
2023-05-24T15:36:38.632Z,63.50
2023-05-24T15:38:46.470Z,63.10
2023-05-24T15:39:50.156Z,64.60
2023-05-24T15:40:54.051Z,63.40
2023-05-24T15:41:57.336Z,64.00
2023-05-24T15:43:02.375Z,63.90
2023-05-24T15:44:08.940Z,61.80
2023-05-24T15:45:13.682Z,63.80
2023-05-24T15:46:18.199Z,64.70
2023-05-24T15:47:27.921Z,64.80
2023-05-24T15:48:30.662Z,64.60
2023-05-24T15:49:34.648Z,65.40
2023-05-24T15:51:03.627Z,65.00
2023-05-24T15:52:04.718Z,65.40
2023-05-24T15:53:08.437Z,65.30
2023-05-24T15:54:12.926Z,65.80
2023-05-24T15:55:18.790Z,67.20
2023-05-24T15:56:23.570Z,67.20
2023-05-24T15:57:27.147Z,66.90
2023-05-24T15:59:36.889Z,67.00
2023-05-24T16:00:39.850Z,66.60
2023-05-24T16:01:43.894Z,67.40
2023-05-24T16:02:49.629Z,67.10
2023-05-24T16:04:57.757Z,66.60
2023-05-24T16:06:05.494Z,68.40
2023-05-24T16:07:09.446Z,68.30
2023-05-24T16:08:17.108Z,69.60
2023-05-24T16:09:20.175Z,69.90
2023-05-24T16:10:24.258Z,69.10
2023-05-24T16:11:29.653Z,70.80
2023-05-24T16:12:33.600Z,70.20
2023-05-24T16:14:41.495Z,70.00
2023-05-24T16:15:55.179Z,70.30
2023-05-24T16:17:02.266Z,70.00
2023-05-24T16:18:12.508Z,69.80
2023-05-24T16:19:16.490Z,69.60
2023-05-24T16:20:22.385Z,69.50
2023-05-24T16:21:28.501Z,69.70
2023-05-24T16:22:34.463Z,69.60
2023-05-24T16:23:38.803Z,70.20
2023-05-24T16:24:41.982Z,69.40
2023-05-24T16:25:48.327Z,70.30
2023-05-24T16:26:50.913Z,71.20
2023-05-24T16:27:56.688Z,70.30
2023-05-24T16:29:01.953Z,70.30
2023-05-24T16:30:09.157Z,70.50
2023-05-24T16:31:13.276Z,70.40
2023-05-24T16:32:16.788Z,70.60
2023-05-24T16:33:22.086Z,70.40
2023-05-24T16:34:25.483Z,70.20
2023-05-24T16:36:33.888Z,70.20
2023-05-24T16:37:37.135Z,70.40
2023-05-24T16:38:40.980Z,70.30
2023-05-24T16:39:44.133Z,70.70
2023-05-24T16:40:48.427Z,70.00
2023-05-24T16:41:53.395Z,70.20
2023-05-24T16:42:56.546Z,69.80
2023-05-24T16:44:04.040Z,73.30
2023-05-24T16:45:08.144Z,69.90
2023-05-24T16:46:11.958Z,70.60
2023-05-24T16:47:15.798Z,69.70
2023-05-24T16:48:22.791Z,70.00
2023-05-24T16:49:28.332Z,69.70
2023-05-24T16:50:33.150Z,69.90
2023-05-24T16:51:40.926Z,69.90
2023-05-24T16:52:44.853Z,69.80
2023-05-24T16:53:49.378Z,70.30
2023-05-24T16:54:56.685Z,70.20
2023-05-24T16:56:01.653Z,70.10